Time;durP1;ratioP1;P1;durP2;ratioP2;P2;SDS_P1;SDS_P2;PMS_P1;PMS_P2;Temp;Humidity;BMP_temperature;BMP_pressure;BME280_temperature;BME280_humidity;BME280_pressure;Samples;Min_cycle;Max_cycle;Signal;HPM_P1;HPM_P2
2023/06/09 00:00:48;;;;;;;5.22;2.53;;;;;;;18.29;54.74;101369.50;5067501;28;20028;-79
2023/06/09 00:03:16;;;;;;;4.15;2.30;;;;;;;18.23;54.92;101369.81;5059818;28;20064;-79
2023/06/09 00:05:41;;;;;;;5.15;2.30;;;;;;;18.19;54.59;101366.47;5044491;28;20036;-79
2023/06/09 00:08:07;;;;;;;7.00;2.63;;;;;;;18.16;55.04;101358.75;5070200;28;20020;-79
2023/06/09 00:10:32;;;;;;;6.18;2.80;;;;;;;18.13;54.87;101363.28;5030650;28;20061;-79
2023/06/09 00:12:58;;;;;;;5.93;2.40;;;;;;;18.09;55.01;101361.75;5015306;28;20479;-79
2023/06/09 00:15:23;;;;;;;5.32;2.63;;;;;;;18.05;54.83;101361.91;5017560;28;20381;-79
2023/06/09 00:17:48;;;;;;;5.88;2.53;;;;;;;18.00;55.34;101366.53;5018730;28;20029;-80
2023/06/09 00:20:14;;;;;;;6.30;2.40;;;;;;;17.96;54.80;101362.31;5015643;28;20030;-79
2023/06/09 00:22:43;;;;;;;7.97;2.78;;;;;;;17.93;55.60;101357.22;5016177;28;20084;-79
2023/06/09 00:25:12;;;;;;;4.70;2.28;;;;;;;17.88;55.01;101353.94;5015437;28;20040;-79
2023/06/09 00:27:38;;;;;;;6.82;2.50;;;;;;;17.86;55.31;101358.44;5015942;28;21765;-79
2023/06/09 00:30:04;;;;;;;5.22;2.70;;;;;;;17.81;55.46;101356.03;5015233;28;20362;-80
2023/06/09 00:32:29;;;;;;;5.20;2.33;;;;;;;17.79;55.27;101357.00;5016423;28;20097;-80
2023/06/09 00:34:55;;;;;;;5.35;2.80;;;;;;;17.74;55.54;101358.09;5026790;28;20108;-79
2023/06/09 00:37:20;;;;;;;5.72;2.53;;;;;;;17.71;55.55;101350.34;5013732;28;20029;-79
2023/06/09 00:39:45;;;;;;;7.25;2.67;;;;;;;17.68;55.94;101354.88;5023385;28;20022;-79
2023/06/09 00:42:10;;;;;;;4.28;2.60;;;;;;;17.65;55.66;101352.41;5025019;28;20055;-79
2023/06/09 00:44:36;;;;;;;5.97;2.70;;;;;;;17.63;55.58;101354.25;5037413;28;20032;-80
2023/06/09 00:47:01;;;;;;;5.72;2.58;;;;;;;17.59;55.52;101350.94;5022497;28;20049;-79
2023/06/09 00:49:26;;;;;;;6.22;2.47;;;;;;;17.57;55.46;101352.78;5013211;28;20439;-79
2023/06/09 00:51:52;;;;;;;5.13;2.50;;;;;;;17.54;55.50;101355.56;5025631;28;20033;-79
2023/06/09 00:54:18;;;;;;;4.80;2.60;;;;;;;17.50;55.58;101353.97;5028959;28;20029;-79
2023/06/09 00:56:44;;;;;;;6.05;2.60;;;;;;;17.45;56.63;101351.56;5015024;28;20536;-79
2023/06/09 00:59:13;;;;;;;5.75;2.72;;;;;;;17.42;56.28;101351.72;5014993;28;20158;-80
2023/06/09 01:01:40;;;;;;;6.40;2.75;;;;;;;17.39;55.44;101352.72;5022899;28;20531;-79
2023/06/09 01:04:06;;;;;;;6.32;2.58;;;;;;;17.37;55.84;101346.66;5012479;28;20030;-79
2023/06/09 01:07:00;;;;;;;5.00;2.65;;;;;;;17.35;55.74;101351.16;5013168;28;20072;-79
2023/06/09 01:09:33;;;;;;;5.35;2.55;;;;;;;17.31;55.47;101343.47;5037440;28;20052;-79
2023/06/09 01:12:11;;;;;;;6.78;2.85;;;;;;;17.29;55.41;101348.78;5071511;28;20020;-79
2023/06/09 01:14:46;;;;;;;7.82;2.80;;;;;;;17.25;56.24;101344.63;5071909;28;20032;-79
2023/06/09 01:17:18;;;;;;;5.05;2.70;;;;;;;17.24;55.58;101342.91;5064939;28;20522;-79
2023/06/09 01:19:48;;;;;;;;;;;;;;;17.29;54.84;101335.63;5071826;28;20025;-79
2023/06/09 01:22:13;;;;;;;3.92;2.33;;;;;;;17.19;55.44;101340.47;5071788;28;19966;-79
2023/06/09 01:25:04;;;;;;;4.90;2.53;;;;;;;17.16;55.33;101334.50;5062521;28;20021;-79
2023/06/09 01:27:32;;;;;;;7.80;2.78;;;;;;;17.13;55.56;101340.75;5060474;28;20482;-79
2023/06/09 01:29:58;;;;;;;6.30;2.70;;;;;;;17.09;55.47;101342.66;5055532;28;20032;-79
2023/06/09 01:32:26;;;;;;;5.00;2.40;;;;;;;17.05;55.79;101338.47;5062858;28;20537;-80
2023/06/09 01:34:53;;;;;;;4.78;2.53;;;;;;;17.02;55.90;101333.34;5053606;28;20036;-79
2023/06/09 01:37:19;;;;;;;4.00;2.40;;;;;;;17.00;55.61;101327.31;5056018;28;20033;-79
2023/06/09 01:39:46;;;;;;;6.28;2.70;;;;;;;16.96;56.25;101326.59;5053196;28;20047;-79
2023/06/09 01:42:11;;;;;;;6.57;3.15;;;;;;;16.95;56.00;101326.66;5056350;28;20021;-79
2023/06/09 01:44:36;;;;;;;5.50;2.88;;;;;;;16.92;56.06;101329.38;5066326;28;20359;-79
2023/06/09 01:47:02;;;;;;;5.85;2.80;;;;;;;16.89;56.09;101330.38;5063031;28;20438;-79
2023/06/09 01:49:42;;;;;;;5.18;2.50;;;;;;;16.86;55.99;101332.31;5066353;28;20056;-80
2023/06/09 01:52:21;;;;;;;5.80;2.50;;;;;;;16.81;56.34;101335.97;5057361;28;20116;-79
2023/06/09 01:54:57;;;;;;;7.05;2.45;;;;;;;16.78;56.36;101332.66;5064686;28;20024;-79
2023/06/09 01:57:25;;;;;;;6.78;2.60;;;;;;;16.74;57.10;101331.91;5057942;28;20040;-79
2023/06/09 01:59:57;;;;;;;7.30;3.08;;;;;;;16.71;56.61;101326.81;5062451;28;20029;-79
2023/06/09 02:02:25;;;;;;;5.78;2.70;;;;;;;16.66;56.87;101328.78;5065448;28;20032;-79
2023/06/09 02:04:53;;;;;;;5.72;2.70;;;;;;;16.63;56.85;101327.16;5058804;28;20541;-80
2023/06/09 02:07:21;;;;;;;7.07;2.67;;;;;;;16.61;56.60;101325.50;5068668;28;20467;-79
2023/06/09 02:09:47;;;;;;;6.07;2.63;;;;;;;16.58;56.84;101318.59;5059991;28;20052;-79
2023/06/09 02:12:12;;;;;;;9.50;3.55;;;;;;;16.56;56.86;101316.97;5067099;28;20028;-79
2023/06/09 02:14:39;;;;;;;5.55;3.00;;;;;;;16.55;56.98;101313.47;5049614;28;20081;-79
2023/06/09 02:17:05;;;;;;;6.45;2.55;;;;;;;16.51;57.05;101320.66;5055778;28;20495;-79
2023/06/09 02:19:35;;;;;;;7.82;2.75;;;;;;;16.47;57.13;101313.81;5059811;28;20024;-79
2023/06/09 02:22:01;;;;;;;4.93;2.70;;;;;;;16.44;57.24;101316.56;5057793;28;20089;-79
2023/06/09 02:24:28;;;;;;;6.70;2.90;;;;;;;16.42;57.16;101312.31;5063285;28;20028;-79
2023/06/09 02:26:54;;;;;;;6.15;2.85;;;;;;;16.36;57.51;101308.19;5055264;28;20056;-79
2023/06/09 02:29:20;;;;;;;7.38;2.72;;;;;;;16.34;57.35;101308.22;5056896;28;20017;-79
2023/06/09 02:31:45;;;;;;;5.18;2.70;;;;;;;16.33;57.66;101303.88;5059977;28;20032;-79
2023/06/09 02:34:10;;;;;;;6.13;2.70;;;;;;;16.31;57.82;101307.50;5061239;28;20395;-79
2023/06/09 02:36:37;;;;;;;6.07;2.78;;;;;;;16.29;57.91;101311.97;5068181;28;20020;-79
2023/06/09 02:39:03;;;;;;;6.30;2.60;;;;;;;16.26;58.23;101301.59;5059015;28;20074;-79
2023/06/09 02:41:28;;;;;;;5.50;2.70;;;;;;;16.25;58.20;101311.25;5051765;28;20024;-79
2023/06/09 02:43:54;;;;;;;6.40;2.70;;;;;;;16.23;58.21;101308.66;5074492;28;20067;-83
2023/06/09 02:46:22;;;;;;;5.82;3.10;;;;;;;16.21;58.39;101305.28;5058938;28;20028;-79
2023/06/09 02:48:48;;;;;;;7.28;2.78;;;;;;;16.21;58.47;101312.28;5051316;28;20108;-80
2023/06/09 02:51:13;;;;;;;6.20;3.10;;;;;;;16.17;58.63;101306.31;5061515;28;20099;-79
2023/06/09 02:53:38;;;;;;;6.03;2.95;;;;;;;16.14;58.73;101314.31;5067087;28;20028;-79
2023/06/09 02:56:04;;;;;;;6.82;3.20;;;;;;;16.12;58.90;101320.56;5063699;28;20032;-79
2023/06/09 02:58:29;;;;;;;6.97;3.05;;;;;;;16.09;59.02;101316.28;5074005;28;20029;-79
2023/06/09 03:00:55;;;;;;;6.95;2.95;;;;;;;16.07;58.95;101312.84;5061924;28;20558;-79
2023/06/09 03:03:20;;;;;;;6.03;3.20;;;;;;;16.05;59.60;101322.59;5061674;28;20605;-79
2023/06/09 03:05:45;;;;;;;7.90;3.03;;;;;;;16.02;59.44;101320.94;5054653;28;20047;-79
2023/06/09 03:08:11;;;;;;;7.20;3.15;;;;;;;16.00;59.35;101316.66;5060479;28;20031;-79
2023/06/09 03:10:37;;;;;;;8.35;3.03;;;;;;;15.98;59.72;101314.09;5060841;28;20037;-79
2023/06/09 03:13:02;;;;;;;8.55;3.10;;;;;;;15.92;59.98;101309.94;5056225;28;20082;-79
2023/06/09 03:15:28;;;;;;;8.45;3.30;;;;;;;15.87;61.14;101314.56;5061424;28;20133;-79
2023/06/09 03:17:53;;;;;;;10.63;3.45;;;;;;;15.84;60.40;101311.16;5060108;28;20474;-79
2023/06/09 03:20:19;;;;;;;6.72;3.80;;;;;;;15.79;60.53;101308.72;5062168;28;20059;-79
2023/06/09 03:22:45;;;;;;;6.05;3.08;;;;;;;15.77;60.54;101315.78;5056730;28;20029;-79
2023/06/09 03:25:11;;;;;;;7.40;3.35;;;;;;;15.74;60.85;101306.28;5067190;28;20028;-79
2023/06/09 03:27:37;;;;;;;10.27;3.63;;;;;;;15.71;62.26;101305.56;5067797;28;20170;-79
2023/06/09 03:30:03;;;;;;;6.60;3.17;;;;;;;15.66;61.20;101313.59;5058754;28;20531;-80
2023/06/09 03:32:28;;;;;;;6.97;3.55;;;;;;;15.62;61.54;101309.41;5061909;28;20376;-79
2023/06/09 03:34:54;;;;;;;8.88;3.03;;;;;;;15.58;62.19;101321.75;5070964;28;20028;-79
2023/06/09 03:37:19;;;;;;;7.20;2.95;;;;;;;15.56;61.62;101326.19;5061782;28;20027;-79
2023/06/09 03:39:45;;;;;;;7.28;3.03;;;;;;;15.57;61.58;101332.31;5059380;28;20174;-79
2023/06/09 03:42:10;;;;;;;6.20;2.97;;;;;;;15.55;61.85;101327.13;5063918;28;20043;-79
2023/06/09 03:44:35;;;;;;;7.80;3.38;;;;;;;15.53;63.75;101336.84;5057409;28;20525;-79
2023/06/09 03:47:00;;;;;;;5.00;2.88;;;;;;;15.54;62.13;101337.69;5063369;28;20037;-79
2023/06/09 03:49:26;;;;;;;7.88;3.17;;;;;;;15.53;61.90;101346.47;5057397;28;20464;-79
2023/06/09 03:51:51;;;;;;;6.15;3.17;;;;;;;15.52;62.18;101334.25;5058385;28;20052;-79
2023/06/09 03:54:16;;;;;;;7.30;3.47;;;;;;;15.48;62.13;101341.41;5056491;28;20028;-79
2023/06/09 03:56:42;;;;;;;8.68;3.80;;;;;;;15.47;62.17;101334.44;5064308;28;20024;-79
2023/06/09 03:59:07;;;;;;;8.90;3.15;;;;;;;15.45;62.15;101341.50;5065736;28;20478;-79
2023/06/09 04:01:32;;;;;;;7.97;3.70;;;;;;;15.45;62.69;101338.88;5064452;28;20494;-79
2023/06/09 04:03:57;;;;;;;8.55;3.13;;;;;;;15.44;62.28;101335.44;5055453;28;20035;-79
2023/06/09 04:06:23;;;;;;;7.18;3.15;;;;;;;15.44;62.65;101334.56;5053490;28;20434;-79
2023/06/09 04:08:48;;;;;;;7.25;3.15;;;;;;;15.46;62.79;101346.69;5055260;28;20039;-79
2023/06/09 04:11:13;;;;;;;7.28;2.83;;;;;;;15.45;62.70;101336.25;5054658;28;20041;-79
2023/06/09 04:13:39;;;;;;;5.15;2.90;;;;;;;15.45;63.46;101337.13;5055928;28;20067;-79
2023/06/09 04:16:05;;;;;;;6.53;3.10;;;;;;;15.45;62.55;101331.91;5058868;28;20035;-79
2023/06/09 04:18:31;;;;;;;6.65;2.90;;;;;;;15.45;62.70;101331.91;5070407;28;20028;-79
2023/06/09 04:20:56;;;;;;;7.65;3.35;;;;;;;15.46;62.58;101343.22;5062049;28;20048;-79
2023/06/09 04:23:21;;;;;;;8.02;3.00;;;;;;;15.46;63.00;101338.81;5066025;28;20391;-79
2023/06/09 04:25:47;;;;;;;7.68;3.50;;;;;;;15.48;62.78;101342.25;5054264;28;20028;-79
2023/06/09 04:28:12;;;;;;;5.68;3.10;;;;;;;15.50;62.97;101333.47;5059880;28;20476;-79
2023/06/09 04:30:38;;;;;;;5.68;2.95;;;;;;;15.51;63.05;101341.28;5057290;28;20067;-79
2023/06/09 04:33:03;;;;;;;6.75;3.20;;;;;;;15.53;63.31;101349.94;5054892;28;20427;-79
2023/06/09 04:35:30;;;;;;;8.77;3.42;;;;;;;15.55;63.29;101344.63;5054795;28;20029;-79
2023/06/09 04:37:56;;;;;;;6.30;3.10;;;;;;;15.58;63.11;101341.91;5069051;28;20525;-79
2023/06/09 04:40:22;;;;;;;5.93;2.95;;;;;;;15.59;63.16;101343.63;5055057;28;20025;-79
2023/06/09 04:42:52;;;;;;;6.13;3.35;;;;;;;15.61;63.03;101347.88;5054188;28;20032;-79
2023/06/09 04:45:18;;;;;;;8.90;3.20;;;;;;;15.63;64.53;101356.53;5066564;28;20028;-79
2023/06/09 04:47:46;;;;;;;7.18;3.17;;;;;;;15.68;66.09;101358.13;5057771;28;20017;-79
2023/06/09 04:50:12;;;;;;;7.60;3.55;;;;;;;15.72;65.14;101354.44;5058348;28;20029;-79
2023/06/09 04:52:39;;;;;;;7.57;3.22;;;;;;;15.77;64.36;101352.50;5056827;28;20108;-78
2023/06/09 04:55:05;;;;;;;7.28;3.28;;;;;;;15.80;64.28;101346.31;5040105;28;20021;-78
2023/06/09 04:57:31;;;;;;;6.28;3.00;;;;;;;15.85;65.59;101345.25;5038413;28;20033;-78
2023/06/09 04:59:57;;;;;;;9.88;3.33;;;;;;;15.90;66.09;101342.44;5057745;28;20036;-78
2023/06/09 05:02:22;;;;;;;6.43;3.10;;;;;;;15.92;64.54;101343.22;5056853;28;20472;-78
2023/06/09 05:04:47;;;;;;;7.20;3.33;;;;;;;15.96;65.20;101344.81;5059800;28;20031;-78
2023/06/09 05:07:14;;;;;;;5.90;3.20;;;;;;;16.01;65.65;101355.13;5063069;28;20032;-78
2023/06/09 05:09:39;;;;;;;9.07;3.30;;;;;;;16.06;66.33;101358.38;5061480;28;20040;-78
2023/06/09 05:12:05;;;;;;;7.70;3.40;;;;;;;16.10;64.42;101354.72;5064054;28;20032;-78
2023/06/09 05:14:30;;;;;;;6.63;3.15;;;;;;;16.15;66.39;101351.91;5057396;28;20036;-79
2023/06/09 05:16:55;;;;;;;8.25;3.20;;;;;;;16.20;66.00;101350.84;5055767;28;20111;-79
2023/06/09 05:19:21;;;;;;;6.35;3.45;;;;;;;16.22;64.67;101349.00;5059430;28;20027;-79
2023/06/09 05:21:46;;;;;;;6.20;3.00;;;;;;;16.28;66.69;101362.75;5058391;28;20105;-79
2023/06/09 05:24:12;;;;;;;7.20;3.22;;;;;;;16.31;65.30;101358.22;5055943;28;20021;-79
2023/06/09 05:26:37;;;;;;;8.10;3.22;;;;;;;16.37;66.56;101363.25;5065186;28;20024;-79
2023/06/09 05:29:02;;;;;;;7.28;3.42;;;;;;;16.41;65.52;101358.72;5061729;28;20365;-78
2023/06/09 05:31:29;;;;;;;6.80;3.53;;;;;;;16.46;66.84;101359.38;5055100;28;20037;-79
2023/06/09 05:33:54;;;;;;;8.43;3.40;;;;;;;16.51;66.31;101354.78;5060340;28;20029;-80
2023/06/09 05:36:19;;;;;;;8.20;3.45;;;;;;;16.57;65.78;101363.34;5061997;28;20092;-80
2023/06/09 05:38:45;;;;;;;8.55;3.67;;;;;;;16.61;65.32;101357.00;5056851;28;20035;-79
2023/06/09 05:41:11;;;;;;;8.98;3.60;;;;;;;16.65;66.13;101361.22;5062843;28;20032;-80
2023/06/09 05:43:36;;;;;;;6.20;3.30;;;;;;;16.71;66.33;101360.97;5062772;28;20024;-79
2023/06/09 05:46:02;;;;;;;8.63;3.75;;;;;;;16.75;65.24;101356.41;5061877;28;20107;-79
2023/06/09 05:48:27;;;;;;;6.75;3.50;;;;;;;16.79;65.50;101361.47;5058802;28;20041;-79
2023/06/09 05:50:52;;;;;;;7.00;3.65;;;;;;;16.85;66.53;101362.97;5058573;28;20017;-79
2023/06/09 05:53:18;;;;;;;8.07;3.45;;;;;;;16.91;66.57;101356.63;5063008;28;20025;-79
2023/06/09 05:55:47;;;;;;;6.55;3.40;;;;;;;16.97;66.51;101367.75;5063688;28;20387;-79
2023/06/09 05:58:13;;;;;;;8.00;3.70;;;;;;;17.04;66.01;101367.44;5056777;28;20037;-79
2023/06/09 06:00:39;;;;;;;7.55;3.63;;;;;;;17.07;64.92;101355.03;5055548;28;20020;-80
2023/06/09 06:03:06;;;;;;;5.20;3.30;;;;;;;17.11;65.85;101356.59;5057226;28;20033;-81
2023/06/09 06:05:31;;;;;;;8.27;4.18;;;;;;;17.18;65.51;101358.94;5059763;28;20021;-81
2023/06/09 06:07:58;;;;;;;10.18;4.47;;;;;;;17.24;65.74;101364.78;5046560;28;20525;-81
2023/06/09 06:10:24;;;;;;;10.13;4.00;;;;;;;17.30;65.48;101361.00;5059524;28;20044;-80
2023/06/09 06:12:49;;;;;;;6.38;3.50;;;;;;;17.34;66.13;101356.47;5058754;28;20070;-80
2023/06/09 06:15:15;;;;;;;7.47;3.83;;;;;;;17.40;65.77;101359.69;5065611;28;20090;-80
2023/06/09 06:17:40;;;;;;;10.98;4.25;;;;;;;17.45;65.13;101354.19;5046781;28;20029;-80
2023/06/09 06:20:06;;;;;;;9.32;4.43;;;;;;;17.52;64.70;101360.03;5046287;28;20052;-80
2023/06/09 06:22:31;;;;;;;9.18;4.95;;;;;;;17.58;64.73;101354.50;5064550;28;20031;-80
2023/06/09 06:24:57;;;;;;;8.98;4.95;;;;;;;17.64;64.67;101362.06;5063961;28;20024;-80
2023/06/09 06:27:22;;;;;;;10.07;4.72;;;;;;;17.70;65.62;101360.91;5062224;28;20111;-80
2023/06/09 06:29:48;;;;;;;9.27;5.28;;;;;;;17.77;64.09;101356.22;5058624;28;20065;-80
2023/06/09 06:32:13;;;;;;;9.32;5.50;;;;;;;17.81;64.27;101358.66;5059555;28;20025;-80
2023/06/09 06:34:38;;;;;;;11.38;6.20;;;;;;;17.89;64.97;101355.66;5057429;28;20476;-80
2023/06/09 06:37:04;;;;;;;12.18;6.43;;;;;;;17.97;64.88;101353.47;5057892;28;20067;-80
2023/06/09 06:39:29;;;;;;;11.85;5.97;;;;;;;18.06;64.65;101357.47;5055325;28;20044;-80
2023/06/09 06:41:54;;;;;;;10.07;5.50;;;;;;;18.12;64.45;101357.19;5064614;28;20033;-81
2023/06/09 06:44:20;;;;;;;8.82;5.15;;;;;;;18.19;64.30;101355.94;5066227;28;20108;-80
2023/06/09 06:46:45;;;;;;;9.07;5.30;;;;;;;18.27;63.10;101363.47;5071027;28;20078;-80
2023/06/09 06:49:11;;;;;;;9.98;4.95;;;;;;;18.31;63.58;101354.47;5060395;28;20029;-80
2023/06/09 06:51:36;;;;;;;9.20;4.82;;;;;;;18.36;64.51;101364.78;5059225;28;20037;-80
2023/06/09 06:54:03;;;;;;;11.20;5.50;;;;;;;18.42;63.73;101358.38;5058193;28;20035;-80
2023/06/09 06:56:28;;;;;;;9.70;5.07;;;;;;;18.47;63.21;101365.09;5055338;28;20488;-81
2023/06/09 06:58:54;;;;;;;9.65;5.40;;;;;;;18.55;63.23;101361.22;5058104;28;20025;-81
2023/06/09 07:01:21;;;;;;;10.63;5.65;;;;;;;18.61;63.78;101359.13;5060055;28;20059;-80
2023/06/09 07:03:47;;;;;;;13.93;5.88;;;;;;;18.69;63.80;101360.50;5046321;28;20074;-80
2023/06/09 07:06:12;;;;;;;10.18;5.82;;;;;;;18.74;62.86;101358.50;5060465;28;20033;-80
2023/06/09 07:08:37;;;;;;;9.70;5.75;;;;;;;18.79;63.19;101356.44;5064188;28;20460;-80
2023/06/09 07:11:03;;;;;;;10.52;5.32;;;;;;;18.87;63.37;101362.19;5060355;28;20041;-81
2023/06/09 07:13:28;;;;;;;9.35;5.40;;;;;;;18.92;63.23;101357.53;5054924;28;20033;-80
2023/06/09 07:15:53;;;;;;;8.98;6.05;;;;;;;18.98;63.01;101360.78;5036404;28;20033;-79
2023/06/09 07:18:18;;;;;;;12.98;6.03;;;;;;;19.05;63.12;101362.19;5056469;28;20033;-80
2023/06/09 07:20:44;;;;;;;10.43;5.75;;;;;;;19.14;62.84;101358.19;5061456;28;20043;-80
2023/06/09 07:23:09;;;;;;;9.95;6.10;;;;;;;19.21;62.20;101357.78;5064282;28;20096;-80
2023/06/09 07:25:35;;;;;;;8.73;5.65;;;;;;;19.25;61.58;101359.31;5062205;28;20032;-80
2023/06/09 07:28:01;;;;;;;8.63;5.38;;;;;;;19.32;62.36;101369.53;5061352;28;20021;-80
2023/06/09 07:30:26;;;;;;;9.77;6.18;;;;;;;19.37;62.15;101357.81;5062932;28;20050;-77
2023/06/09 07:32:51;;;;;;;10.57;6.20;;;;;;;19.44;63.46;101354.81;5062775;28;20424;-77
2023/06/09 07:35:19;;;;;;;10.35;5.90;;;;;;;19.50;62.67;101351.84;5062468;28;20028;-78
2023/06/09 07:37:46;;;;;;;12.95;5.82;;;;;;;19.58;62.30;101354.06;5050894;28;20021;-78
2023/06/09 07:40:12;;;;;;;13.43;6.57;;;;;;;19.64;62.01;101356.38;5063214;28;20434;-80
2023/06/09 07:42:37;;;;;;;8.10;5.97;;;;;;;19.71;61.55;101365.63;5065671;28;20020;-80
2023/06/09 07:45:03;;;;;;;10.13;6.00;;;;;;;19.76;61.61;101358.31;5060302;28;20035;-80
2023/06/09 07:47:28;;;;;;;10.57;6.40;;;;;;;19.83;60.64;101358.81;5062511;28;20040;-80
2023/06/09 07:49:53;;;;;;;10.52;6.50;;;;;;;19.88;61.25;101353.28;5048397;28;20024;-80
2023/06/09 07:52:18;;;;;;;10.20;6.80;;;;;;;19.95;60.55;101357.31;5060975;28;20017;-79
2023/06/09 07:54:44;;;;;;;9.52;6.25;;;;;;;19.99;60.85;101358.81;5059762;28;20506;-79
2023/06/09 07:57:09;;;;;;;10.13;6.57;;;;;;;20.07;61.68;101356.59;5067337;28;20069;-78
2023/06/09 07:59:34;;;;;;;9.18;6.18;;;;;;;20.16;61.51;101353.41;5059679;28;20024;-78
2023/06/09 08:02:00;;;;;;;9.38;6.35;;;;;;;20.26;61.82;101350.22;5060979;28;20043;-78
2023/06/09 08:04:26;;;;;;;9.93;6.47;;;;;;;20.34;61.31;101341.84;5061562;28;20024;-79
2023/06/09 08:06:51;;;;;;;10.15;6.45;;;;;;;20.42;59.99;101355.44;5059300;28;20029;-79
2023/06/09 08:09:17;;;;;;;8.07;5.63;;;;;;;20.51;60.35;101354.06;5058953;28;20159;-79
2023/06/09 08:11:42;;;;;;;9.25;6.07;;;;;;;20.58;59.26;101344.81;5057986;28;20024;-79
2023/06/09 08:14:07;;;;;;;12.85;6.50;;;;;;;20.64;60.47;101339.19;5058583;28;20032;-80
2023/06/09 08:16:32;;;;;;;9.55;6.53;;;;;;;20.70;59.47;101345.88;5059092;28;20036;-80
2023/06/09 08:18:58;;;;;;;9.80;6.45;;;;;;;20.75;59.42;101349.09;5060939;28;20120;-79
2023/06/09 08:21:23;;;;;;;8.00;5.93;;;;;;;20.79;59.16;101349.78;5062585;28;20083;-80
2023/06/09 08:23:48;;;;;;;10.32;6.30;;;;;;;20.88;59.60;101341.28;5060262;28;20032;-80
2023/06/09 08:26:14;;;;;;;8.65;5.97;;;;;;;20.96;58.87;101349.59;5061813;28;20020;-78
2023/06/09 08:28:40;;;;;;;9.95;6.07;;;;;;;21.05;59.40;101354.31;5059103;28;20598;-78
2023/06/09 08:31:06;;;;;;;7.90;6.10;;;;;;;21.13;58.23;101345.06;5056211;28;20036;-78
2023/06/09 08:33:33;;;;;;;10.43;6.60;;;;;;;21.20;57.34;101346.38;5059846;28;20039;-81
2023/06/09 08:36:02;;;;;;;9.55;6.35;;;;;;;21.26;59.54;101346.00;5058667;28;20051;-79
2023/06/09 08:38:27;;;;;;;8.00;6.03;;;;;;;21.32;56.86;101345.63;5063962;28;20051;-79
2023/06/09 08:40:56;;;;;;;7.28;6.05;;;;;;;21.36;56.91;101341.78;5045142;28;20467;-77
2023/06/09 08:43:22;;;;;;;8.60;5.88;;;;;;;21.42;57.58;101340.59;5060436;28;20399;-77
2023/06/09 08:45:51;;;;;;;10.68;6.13;;;;;;;21.47;57.03;101342.94;5058909;28;20028;-78
2023/06/09 08:48:19;;;;;;;9.45;6.05;;;;;;;21.51;58.26;101339.97;5058539;28;20459;-78
2023/06/09 08:50:45;;;;;;;9.85;6.18;;;;;;;21.60;60.17;101340.34;5060937;28;20021;-78
2023/06/09 08:53:11;;;;;;;10.65;6.43;;;;;;;21.64;58.04;101334.78;5055860;28;20024;-78
2023/06/09 08:55:37;;;;;;;8.40;6.07;;;;;;;21.70;57.72;101337.97;5054928;28;20486;-78
2023/06/09 08:58:03;;;;;;;10.98;6.25;;;;;;;21.72;56.17;101342.22;5059435;28;20119;-78
2023/06/09 09:00:29;;;;;;;12.50;6.60;;;;;;;21.76;57.06;101337.56;5054958;28;20040;-78
2023/06/09 09:02:56;;;;;;;10.40;6.53;;;;;;;21.80;56.53;101344.38;5058827;28;20021;-79
2023/06/09 09:05:21;;;;;;;8.90;6.22;;;;;;;21.86;56.62;101332.50;5043201;28;20077;-80
2023/06/09 09:07:47;;;;;;;9.48;5.93;;;;;;;21.93;56.59;101342.59;5060218;28;20012;-79
2023/06/09 09:10:12;;;;;;;8.52;6.00;;;;;;;22.02;57.00;101335.84;5058826;28;20128;-79
2023/06/09 09:12:48;;;;;;;6.97;5.53;;;;;;;22.08;56.71;101335.44;5058030;28;20750;-79
2023/06/09 09:15:13;;;;;;;14.48;6.32;;;;;;;22.12;56.12;101336.09;5056680;28;20051;-79
2023/06/09 09:17:40;;;;;;;22.17;6.57;;;;;;;22.19;54.92;101339.16;5059128;28;20043;-79
2023/06/09 09:20:10;;;;;;;9.23;5.70;;;;;;;22.25;56.64;101330.81;5059566;28;20036;-79
2023/06/09 09:22:55;;;;;;;9.48;5.63;;;;;;;22.35;56.37;101333.69;5055895;28;20387;-79
2023/06/09 09:25:25;;;;;;;9.40;6.05;;;;;;;22.41;56.55;101322.66;5055948;28;20056;-80
2023/06/09 09:28:08;;;;;;;7.45;5.60;;;;;;;22.45;55.45;101324.19;5055599;28;20024;-79
2023/06/09 09:30:44;;;;;;;7.57;5.40;;;;;;;22.52;54.59;101325.47;5054299;28;20066;-80
2023/06/09 09:33:17;;;;;;;7.05;5.72;;;;;;;22.54;53.68;101310.31;5060153;28;20055;-80
2023/06/09 09:35:48;;;;;;;7.82;5.88;;;;;;;22.60;54.57;101311.69;5058714;28;20040;-79
2023/06/09 09:38:16;;;;;;;;;;;;;;;22.67;55.22;101320.06;5058348;28;20387;-80
2023/06/09 09:40:43;;;;;;;6.82;5.43;;;;;;;22.72;52.69;101323.22;5059320;28;19919;-79
2023/06/09 09:43:10;;;;;;;7.57;5.32;;;;;;;22.76;52.25;101315.91;5053963;28;20032;-79
2023/06/09 09:45:38;;;;;;;9.38;5.72;;;;;;;22.78;52.93;101308.69;5058643;28;20068;-79
2023/06/09 09:48:11;;;;;;;7.55;5.57;;;;;;;22.86;52.65;101315.16;5044994;28;20017;-79
2023/06/09 09:50:38;;;;;;;7.40;5.57;;;;;;;22.95;51.87;101315.44;5053341;28;20398;-80
2023/06/09 09:53:05;;;;;;;8.73;6.63;;;;;;;22.99;51.01;101306.31;5058064;28;21240;-79
2023/06/09 09:55:34;;;;;;;8.25;5.97;;;;;;;23.08;52.70;101310.97;5056113;28;20368;-79
2023/06/09 09:58:04;;;;;;;6.65;5.75;;;;;;;23.16;52.25;101303.31;5059975;28;20033;-79
2023/06/09 10:00:30;;;;;;;7.72;5.78;;;;;;;23.24;52.69;101305.44;5060369;28;20081;-79
2023/06/09 10:03:00;;;;;;;7.00;5.55;;;;;;;23.25;51.32;101306.28;5056927;28;20029;-78
2023/06/09 10:05:31;;;;;;;7.80;5.50;;;;;;;23.28;52.24;101298.09;5057961;28;20170;-78
2023/06/09 10:08:00;;;;;;;7.13;5.30;;;;;;;23.33;51.97;101306.59;5057155;28;20026;-78
2023/06/09 10:10:26;;;;;;;6.55;5.22;;;;;;;23.36;50.39;101309.03;5062206;28;20048;-78
2023/06/09 10:12:52;;;;;;;8.02;5.70;;;;;;;23.41;52.21;101296.22;5059186;28;20032;-78
2023/06/09 10:15:19;;;;;;;8.98;5.57;;;;;;;23.46;51.64;101296.75;5066057;28;20399;-78
2023/06/09 10:17:46;;;;;;;7.78;5.78;;;;;;;23.53;53.88;101297.16;5055987;28;20036;-78
2023/06/09 10:20:13;;;;;;;7.05;5.15;;;;;;;23.57;52.92;101295.97;5055161;28;20573;-78
2023/06/09 10:22:40;;;;;;;7.05;5.47;;;;;;;23.60;51.94;101293.09;5055614;28;20103;-78
2023/06/09 10:25:06;;;;;;;10.30;5.75;;;;;;;23.61;51.30;101297.44;5061775;28;20024;-78
2023/06/09 10:27:32;;;;;;;9.63;5.70;;;;;;;23.67;50.97;101296.13;5064432;28;20032;-78
2023/06/09 10:29:58;;;;;;;9.02;5.75;;;;;;;23.69;49.19;101285.38;5061686;28;20021;-78
2023/06/09 10:32:27;;;;;;;7.43;5.72;;;;;;;23.72;50.60;101285.16;5070934;28;20399;-78
2023/06/09 10:34:56;;;;;;;8.25;5.10;;;;;;;23.73;47.67;101285.06;5064885;28;20023;-78
2023/06/09 10:37:41;;;;;;;7.22;5.20;;;;;;;23.75;49.89;101277.78;5067795;28;20099;-78
2023/06/09 10:40:17;;;;;;;6.32;4.88;;;;;;;23.80;49.83;101277.47;5060200;28;20173;-78
2023/06/09 10:42:51;;;;;;;6.45;5.10;;;;;;;23.86;49.81;101269.03;5061720;28;20032;-78
2023/06/09 10:45:18;;;;;;;7.32;5.30;;;;;;;23.94;50.07;101274.63;5062493;28;20032;-78
2023/06/09 10:47:47;;;;;;;7.03;5.10;;;;;;;23.99;49.30;101263.66;5062161;28;20027;-79
2023/06/09 10:50:26;;;;;;;7.85;5.35;;;;;;;24.02;48.23;101268.75;5061170;28;20032;-78
2023/06/09 10:52:54;;;;;;;7.43;5.20;;;;;;;24.04;48.19;101268.63;5063220;28;20025;-78
2023/06/09 10:55:22;;;;;;;7.10;4.93;;;;;;;24.08;48.12;101270.91;5062359;28;20472;-79
2023/06/09 10:57:50;;;;;;;6.35;5.00;;;;;;;24.14;48.53;101276.75;5058322;28;21627;-78
2023/06/09 11:00:16;;;;;;;5.80;4.93;;;;;;;24.16;46.01;101266.84;5061369;28;20438;-79
2023/06/09 11:02:49;;;;;;;7.55;5.10;;;;;;;24.20;46.17;101265.66;5060418;28;20020;-78
2023/06/09 11:05:16;;;;;;;6.28;4.75;;;;;;;24.23;45.90;101260.09;5060119;28;20487;-79
2023/06/09 11:07:43;;;;;;;6.80;4.93;;;;;;;24.27;46.46;101261.53;5064880;28;20465;-79
2023/06/09 11:10:08;;;;;;;7.03;4.88;;;;;;;24.34;45.49;101262.75;5064855;28;20239;-80
2023/06/09 11:12:36;;;;;;;6.68;4.85;;;;;;;24.39;46.58;101260.59;5059440;28;20112;-79
2023/06/09 11:15:03;;;;;;;8.25;4.95;;;;;;;24.43;45.87;101260.34;5059059;28;20090;-78
2023/06/09 11:17:41;;;;;;;8.27;5.40;;;;;;;24.46;47.00;101260.97;5058664;28;20486;-80
2023/06/09 11:20:07;;;;;;;8.60;5.15;;;;;;;24.51;45.53;101255.28;5060051;28;20543;-79
2023/06/09 11:22:34;;;;;;;7.35;5.10;;;;;;;24.55;45.24;101254.06;5045865;28;20063;-79